createdAt,value
2022-08-12T00:00:01.888Z,48.15
2022-08-12T00:02:47.284Z,48.18
2022-08-12T00:05:34.885Z,48.21
2022-08-12T00:08:34.404Z,48.11
2022-08-12T00:11:22.525Z,48.34
2022-08-12T00:14:08.022Z,48.55
2022-08-12T00:16:53.284Z,48.32
2022-08-12T00:19:38.113Z,49.44
2022-08-12T00:22:24.182Z,48.61
2022-08-12T00:25:09.015Z,48.50
2022-08-12T00:27:54.295Z,48.53
2022-08-12T00:30:39.582Z,48.32
2022-08-12T00:33:27.533Z,48.12
2022-08-12T00:36:34.889Z,47.86
2022-08-12T00:39:22.544Z,48.08
2022-08-12T00:42:08.723Z,48.98
2022-08-12T00:44:35.559Z,48.44
2022-08-12T00:47:03.314Z,48.50
2022-08-12T00:49:30.962Z,48.28
2022-08-12T00:52:06.476Z,48.51
2022-08-12T00:54:48.481Z,49.23
2022-08-12T00:57:30.736Z,48.88
2022-08-12T01:00:03.839Z,48.87
2022-08-12T01:02:36.435Z,49.39
2022-08-12T01:05:27.160Z,49.31
2022-08-12T01:08:12.663Z,49.93
2022-08-12T01:10:59.968Z,49.93
2022-08-12T01:13:28.439Z,50.13
2022-08-12T01:15:58.777Z,50.08
2022-08-12T01:18:30.975Z,50.28
2022-08-12T01:21:09.951Z,50.61
2022-08-12T01:23:48.670Z,50.93
2022-08-12T01:26:21.275Z,50.71
2022-08-12T01:28:50.408Z,50.91
2022-08-12T01:31:19.041Z,50.98
2022-08-12T01:34:05.708Z,50.73
2022-08-12T01:37:02.154Z,50.70
2022-08-12T01:40:35.435Z,51.12
2022-08-12T01:42:33.564Z,51.50
2022-08-12T01:45:01.855Z,50.97
2022-08-12T01:47:30.776Z,51.14
2022-08-12T01:50:16.789Z,51.52
2022-08-12T01:52:54.559Z,51.31
2022-08-12T01:55:30.304Z,51.02
2022-08-12T01:58:18.421Z,51.66
2022-08-12T02:01:03.708Z,51.69
2022-08-12T02:04:10.114Z,51.14
2022-08-12T02:07:10.973Z,52.13
2022-08-12T02:10:11.295Z,51.98
2022-08-12T02:13:15.372Z,52.55
2022-08-12T02:15:56.363Z,52.36
2022-08-12T02:18:51.236Z,51.90
2022-08-12T02:21:20.709Z,52.87
2022-08-12T02:23:49.307Z,52.20
2022-08-12T02:26:17.365Z,52.35
2022-08-12T02:28:45.380Z,52.45
2022-08-12T02:31:14.902Z,55.33
2022-08-12T02:33:43.101Z,54.06
2022-08-12T02:36:09.725Z,55.08
2022-08-12T02:38:37.786Z,54.51
2022-08-12T02:41:05.458Z,55.82
2022-08-12T02:43:55.880Z,54.98
2022-08-12T02:46:34.683Z,55.15
2022-08-12T02:49:09.437Z,55.86
2022-08-12T02:51:42.666Z,54.38
2022-08-12T02:54:09.311Z,55.20
2022-08-12T02:56:40.564Z,54.85
2022-08-12T02:59:14.366Z,54.87
2022-08-12T03:01:49.758Z,54.49
2022-08-12T03:04:30.415Z,55.12
2022-08-12T03:07:09.671Z,55.87
2022-08-12T03:10:03.673Z,55.86
2022-08-12T03:12:47.447Z,55.08
2022-08-12T03:15:18.825Z,56.09
2022-08-12T03:18:26.883Z,55.10
2022-08-12T03:20:56.873Z,55.47
2022-08-12T03:23:30.004Z,55.52
2022-08-12T03:26:02.454Z,55.12
2022-08-12T03:28:53.362Z,56.17
2022-08-12T03:31:29.740Z,56.06
2022-08-12T03:34:06.591Z,56.02
2022-08-12T03:36:36.526Z,55.67
2022-08-12T03:39:19.062Z,56.85
2022-08-12T03:41:58.570Z,56.15
2022-08-12T03:44:51.837Z,56.69
2022-08-12T03:47:52.020Z,56.96
2022-08-12T03:50:39.485Z,56.62
2022-08-12T03:53:29.310Z,55.14
2022-08-12T03:56:15.251Z,55.80
2022-08-12T03:59:00.110Z,55.73
2022-08-12T04:01:27.266Z,56.00
2022-08-12T04:03:54.652Z,55.78
2022-08-12T04:06:34.930Z,55.62
2022-08-12T04:09:16.251Z,55.20
2022-08-12T04:12:04.175Z,55.12
2022-08-12T04:14:32.254Z,55.15
2022-08-12T04:16:58.985Z,54.94
2022-08-12T04:19:26.594Z,54.56
2022-08-12T04:22:02.260Z,54.35
2022-08-12T04:24:40.742Z,54.92
2022-08-12T04:27:09.914Z,54.42
2022-08-12T04:30:31.839Z,54.67
2022-08-12T04:32:25.124Z,53.93
2022-08-12T04:34:52.257Z,54.95
2022-08-12T04:37:19.011Z,54.61
2022-08-12T04:39:46.554Z,54.18
2022-08-12T04:42:13.245Z,54.12
2022-08-12T04:44:40.184Z,54.30
2022-08-12T04:47:06.771Z,53.84
2022-08-12T04:49:34.882Z,53.71
2022-08-12T04:52:02.786Z,53.32
2022-08-12T04:54:30.851Z,53.76
2022-08-12T04:57:03.281Z,52.45
2022-08-12T04:59:31.699Z,53.08
2022-08-12T05:02:20.472Z,53.16
2022-08-12T05:04:51.737Z,53.35
2022-08-12T05:07:19.363Z,53.71
2022-08-12T05:10:00.265Z,53.50
2022-08-12T05:12:37.181Z,52.99
2022-08-12T05:15:16.830Z,52.35
2022-08-12T05:17:55.871Z,52.58
2022-08-12T05:20:23.282Z,51.19
2022-08-12T05:22:50.046Z,50.97
2022-08-12T05:25:22.301Z,52.00
2022-08-12T05:27:57.803Z,51.88
2022-08-12T05:30:26.779Z,51.21
2022-08-12T05:32:55.649Z,51.66
2022-08-12T05:35:26.815Z,50.68
2022-08-12T05:38:11.831Z,51.41
2022-08-12T05:40:38.553Z,50.91
2022-08-12T05:43:06.095Z,51.03
2022-08-12T05:45:32.631Z,50.60
2022-08-12T05:47:59.188Z,49.71
2022-08-12T05:50:26.802Z,50.14
2022-08-12T05:52:53.996Z,50.58
2022-08-12T05:55:20.779Z,49.76
2022-08-12T05:57:55.281Z,50.19
2022-08-12T06:00:25.638Z,50.26
2022-08-12T06:03:01.309Z,50.51
2022-08-12T06:05:54.242Z,49.99
2022-08-12T06:08:22.485Z,49.86
2022-08-12T06:10:52.116Z,50.38
2022-08-12T06:13:28.260Z,49.78
2022-08-12T06:16:07.357Z,49.34
2022-08-12T06:18:34.538Z,50.23
2022-08-12T06:21:01.910Z,49.33
2022-08-12T06:23:29.638Z,49.24
2022-08-12T06:25:56.467Z,49.49
2022-08-12T06:28:23.466Z,48.85
2022-08-12T06:31:14.964Z,49.04
2022-08-12T06:33:57.663Z,49.02
2022-08-12T06:36:29.707Z,49.83
2022-08-12T06:38:59.203Z,49.83
2022-08-12T06:42:05.008Z,49.04
2022-08-12T06:44:32.636Z,48.48
2022-08-12T06:46:59.443Z,48.66
2022-08-12T06:49:27.634Z,48.99
2022-08-12T06:51:56.270Z,48.22
2022-08-12T06:54:30.881Z,48.37
2022-08-12T06:58:06.892Z,48.52
2022-08-12T06:59:45.578Z,48.70
2022-08-12T07:02:12.616Z,49.45
2022-08-12T07:04:39.544Z,49.23
2022-08-12T07:07:10.521Z,49.13
2022-08-12T07:10:04.901Z,49.90
2022-08-12T07:12:28.425Z,48.42
2022-08-12T07:14:59.312Z,48.14
2022-08-12T07:17:35.886Z,46.96
2022-08-12T07:20:05.874Z,47.53
2022-08-12T07:22:33.367Z,47.34
2022-08-12T07:25:18.650Z,48.10
2022-08-12T07:27:46.752Z,47.07
2022-08-12T07:30:14.313Z,47.05
2022-08-12T07:32:41.090Z,47.21
2022-08-12T07:35:08.155Z,46.82
2022-08-12T07:37:40.582Z,46.25
2022-08-12T07:40:11.743Z,46.71
2022-08-12T07:42:39.848Z,45.48
2022-08-12T07:45:07.480Z,45.47
2022-08-12T07:47:37.982Z,46.33
2022-08-12T07:50:09.173Z,46.93
2022-08-12T07:52:42.233Z,45.73
2022-08-12T07:55:10.298Z,45.73
2022-08-12T07:57:59.313Z,45.67
2022-08-12T08:00:28.050Z,45.59
2022-08-12T08:02:55.069Z,44.84
2022-08-12T08:05:24.051Z,45.37
2022-08-12T08:07:53.294Z,45.41
2022-08-12T08:10:20.531Z,44.98
2022-08-12T08:12:58.697Z,45.16
2022-08-12T08:15:51.158Z,45.89
2022-08-12T08:18:25.903Z,45.14
2022-08-12T08:20:52.673Z,44.95
2022-08-12T08:23:19.236Z,44.65
2022-08-12T08:25:46.029Z,44.51
2022-08-12T08:28:14.844Z,44.48
2022-08-12T08:30:45.598Z,43.42
2022-08-12T08:33:24.688Z,43.72
2022-08-12T08:36:02.189Z,42.87
2022-08-12T08:38:31.852Z,42.95
2022-08-12T08:42:16.872Z,43.53
2022-08-12T08:44:05.870Z,43.48
2022-08-12T08:46:38.189Z,42.52
2022-08-12T08:49:05.789Z,41.14
2022-08-12T08:51:33.188Z,43.08
2022-08-12T08:53:59.828Z,42.12
2022-08-12T08:56:27.218Z,41.68
2022-08-12T08:58:53.763Z,43.61
2022-08-12T09:01:22.490Z,42.56
2022-08-12T09:05:11.315Z,41.96
2022-08-12T09:06:37.900Z,40.87
2022-08-12T09:09:12.999Z,41.44
2022-08-12T09:14:46.845Z,41.63
2022-08-12T09:17:21.301Z,40.68
2022-08-12T09:19:56.894Z,39.42
2022-08-12T09:22:29.171Z,39.15
2022-08-12T09:24:56.315Z,40.21
2022-08-12T09:27:57.730Z,40.86
2022-08-12T09:30:17.846Z,38.51
2022-08-12T09:33:19.405Z,40.44
2022-08-12T09:36:02.981Z,36.54
2022-08-12T09:38:32.135Z,36.67
2022-08-12T09:42:09.645Z,35.30
2022-08-12T09:44:05.557Z,37.13
2022-08-12T09:46:34.576Z,37.54
2022-08-12T09:49:04.122Z,36.58
2022-08-12T09:51:44.138Z,36.78
2022-08-12T09:54:32.645Z,36.45
2022-08-12T09:57:03.646Z,36.02
2022-08-12T10:00:13.407Z,36.89
2022-08-12T10:02:44.740Z,34.95
2022-08-12T10:05:22.704Z,35.40
2022-08-12T10:08:11.287Z,35.88
2022-08-12T10:11:00.610Z,33.95
2022-08-12T10:13:43.686Z,36.17
2022-08-12T10:16:29.177Z,32.92
2022-08-12T10:19:01.698Z,35.46
2022-08-12T10:21:41.282Z,35.57
2022-08-12T10:24:20.305Z,32.46
2022-08-12T10:27:06.343Z,34.66
2022-08-12T10:30:03.098Z,32.78
2022-08-12T10:32:43.026Z,34.32
2022-08-12T10:35:10.209Z,33.54
2022-08-12T10:38:33.383Z,32.00
2022-08-12T10:40:31.591Z,31.34
2022-08-12T10:43:28.776Z,31.77
2022-08-12T10:46:18.245Z,32.02
2022-08-12T10:48:58.366Z,30.98
2022-08-12T10:52:03.420Z,32.05
2022-08-12T10:54:26.825Z,29.81
2022-08-12T10:56:56.170Z,28.56
2022-08-12T11:00:29.545Z,30.82
2022-08-12T11:04:26.251Z,28.72
2022-08-12T11:05:17.589Z,28.24
2022-08-12T11:08:37.037Z,29.39
2022-08-12T11:10:36.645Z,29.02
2022-08-12T11:13:03.616Z,29.87
2022-08-12T11:16:18.937Z,30.78
2022-08-12T11:18:25.795Z,29.24
2022-08-12T11:20:54.307Z,29.83
2022-08-12T11:23:36.879Z,28.55
2022-08-12T11:26:07.993Z,29.07
2022-08-12T11:28:37.253Z,29.10
2022-08-12T11:31:06.896Z,29.14
2022-08-12T11:34:06.098Z,28.82
2022-08-12T11:36:23.340Z,28.19
2022-08-12T11:38:53.158Z,28.29
2022-08-12T11:41:20.678Z,28.26
2022-08-12T11:43:58.909Z,27.96
2022-08-12T11:46:25.896Z,29.00
2022-08-12T11:48:52.805Z,27.33
2022-08-12T11:51:20.825Z,26.04
2022-08-12T11:53:57.136Z,26.73
2022-08-12T11:56:25.889Z,27.31
2022-08-12T12:02:00.731Z,27.26
2022-08-12T12:04:30.654Z,28.19
2022-08-12T12:07:07.115Z,26.02
2022-08-12T12:09:53.065Z,27.14
2022-08-12T12:12:23.454Z,27.09
2022-08-12T12:14:54.992Z,26.60
2022-08-12T12:17:23.696Z,26.36
2022-08-12T12:19:50.317Z,27.47
2022-08-12T12:22:23.475Z,26.90
2022-08-12T12:24:57.968Z,25.47
2022-08-12T12:28:03.983Z,26.17
2022-08-12T12:30:19.922Z,26.46
2022-08-12T12:32:56.235Z,25.92
2022-08-12T12:36:17.020Z,25.36
2022-08-12T12:38:12.066Z,26.62
2022-08-12T12:40:43.735Z,28.07
2022-08-12T12:43:12.008Z,27.59
2022-08-12T12:45:39.630Z,27.27
2022-08-12T12:48:17.480Z,25.74
2022-08-12T12:51:15.070Z,26.50
2022-08-12T12:54:08.627Z,26.58
2022-08-12T12:56:42.292Z,26.68
2022-08-12T12:59:54.571Z,25.86
2022-08-12T13:01:56.176Z,24.77
2022-08-12T13:04:24.665Z,25.16
2022-08-12T13:06:52.241Z,25.54
2022-08-12T13:09:22.289Z,26.05
2022-08-12T13:11:53.142Z,25.25
2022-08-12T13:14:29.135Z,24.82
2022-08-12T13:17:02.323Z,24.42
2022-08-12T13:19:43.447Z,24.24
2022-08-12T13:22:20.340Z,26.18
2022-08-12T13:24:56.042Z,25.44
2022-08-12T13:27:36.388Z,26.83
2022-08-12T13:30:17.614Z,27.59
2022-08-12T13:32:56.559Z,26.90
2022-08-12T13:36:05.986Z,27.39
2022-08-12T13:38:35.472Z,26.00
2022-08-12T13:41:03.822Z,28.06
2022-08-12T13:43:41.107Z,27.81
2022-08-12T13:46:11.944Z,27.34
2022-08-12T13:48:45.330Z,26.70
2022-08-12T13:51:13.418Z,25.25
2022-08-12T13:53:58.964Z,24.55
2022-08-12T13:56:34.456Z,23.52
2022-08-12T13:59:08.014Z,22.36
2022-08-12T14:01:40.584Z,23.13
2022-08-12T14:04:11.544Z,21.00
2022-08-12T14:06:39.477Z,19.92
2022-08-12T14:09:17.462Z,19.62
2022-08-12T14:11:58.349Z,18.59
2022-08-12T14:14:27.903Z,18.79
2022-08-12T14:17:05.509Z,18.31
2022-08-12T14:19:37.970Z,17.65
2022-08-12T14:22:10.380Z,18.31
2022-08-12T14:24:40.803Z,18.71
2022-08-12T14:27:10.483Z,19.30
2022-08-12T14:30:06.221Z,19.73
2022-08-12T14:32:35.022Z,20.48
2022-08-12T14:35:05.167Z,19.84
2022-08-12T14:37:56.366Z,20.18
2022-08-12T14:40:18.937Z,18.58
2022-08-12T14:42:54.696Z,18.76
2022-08-12T14:45:23.012Z,17.75
2022-08-12T14:47:53.676Z,17.40
2022-08-12T14:50:37.431Z,16.55
2022-08-12T14:55:24.623Z,16.59
2022-08-12T14:59:23.265Z,16.14
2022-08-12T15:01:52.157Z,15.18
2022-08-12T15:04:22.517Z,14.71
2022-08-12T15:06:52.731Z,14.56
2022-08-12T15:09:28.737Z,14.33
2022-08-12T15:12:03.366Z,14.50
2022-08-12T15:14:31.307Z,15.91
2022-08-12T15:17:00.068Z,16.46
2022-08-12T15:20:28.048Z,18.35
2022-08-12T15:22:38.340Z,18.54
2022-08-12T15:25:07.608Z,16.39
2022-08-12T15:28:05.684Z,15.63
2022-08-12T15:30:31.179Z,16.72
2022-08-12T15:32:58.459Z,17.93
2022-08-12T15:35:31.229Z,16.75
2022-08-12T15:38:12.052Z,14.35
2022-08-12T15:40:48.235Z,14.78
2022-08-12T15:43:51.000Z,14.44
2022-08-12T15:46:04.725Z,13.96
2022-08-12T15:48:32.783Z,12.76
2022-08-12T15:51:00.634Z,12.86
2022-08-12T15:53:45.903Z,15.53
2022-08-12T15:56:22.170Z,17.28
2022-08-12T15:58:58.283Z,17.96
2022-08-12T16:01:25.202Z,16.71
2022-08-12T16:04:01.932Z,16.62
2022-08-12T16:07:03.549Z,16.48
2022-08-12T16:09:21.537Z,19.51
2022-08-12T16:11:48.523Z,20.94
2022-08-12T16:14:16.755Z,21.44
2022-08-12T16:16:43.410Z,23.30
2022-08-12T16:20:03.601Z,23.27
2022-08-12T16:22:07.115Z,24.16
2022-08-12T16:24:44.682Z,24.41
2022-08-12T16:27:11.249Z,24.48
2022-08-12T16:29:53.486Z,25.67
2022-08-12T16:32:24.242Z,26.39
2022-08-12T16:34:54.778Z,27.42
2022-08-12T16:37:32.747Z,27.29
2022-08-12T16:40:12.202Z,26.83
2022-08-12T16:42:42.084Z,27.36
2022-08-12T16:45:23.356Z,27.88
2022-08-12T16:48:00.574Z,27.80
2022-08-12T16:50:30.847Z,28.18
2022-08-12T16:53:02.212Z,27.31
2022-08-12T16:55:35.038Z,27.99
2022-08-12T16:58:27.892Z,28.22
2022-08-12T17:00:57.283Z,27.86
2022-08-12T17:03:28.844Z,28.90
2022-08-12T17:05:57.147Z,28.29
2022-08-12T17:08:29.439Z,28.18
2022-08-12T17:10:56.422Z,28.56
2022-08-12T17:13:26.148Z,29.42
2022-08-12T17:16:06.206Z,29.76
2022-08-12T17:18:42.778Z,29.86
2022-08-12T17:21:17.563Z,30.16
2022-08-12T17:23:53.389Z,29.49
2022-08-12T17:26:28.255Z,30.00
2022-08-12T17:29:00.764Z,30.24
2022-08-12T17:32:00.765Z,29.64
2022-08-12T17:34:38.578Z,29.60
2022-08-12T17:37:06.379Z,31.15
2022-08-12T17:40:12.133Z,30.26
2022-08-12T17:42:33.020Z,30.03
2022-08-12T17:45:18.517Z,30.40
2022-08-12T17:48:05.001Z,30.35
2022-08-12T17:50:38.231Z,31.73
2022-08-12T17:53:08.058Z,30.32
2022-08-12T17:55:47.771Z,30.80
2022-08-12T17:58:17.068Z,32.57
2022-08-12T18:00:45.603Z,31.88
2022-08-12T18:04:14.055Z,32.58
2022-08-12T18:06:08.555Z,32.21
2022-08-12T18:08:54.935Z,31.33
2022-08-12T18:12:03.650Z,32.61
2022-08-12T18:14:29.026Z,33.23
2022-08-12T18:17:00.309Z,32.11
2022-08-12T18:19:34.126Z,31.90
2022-08-12T18:22:17.680Z,32.44
2022-08-12T18:24:58.904Z,34.10
2022-08-12T18:27:44.748Z,34.90
2022-08-12T18:30:20.893Z,33.27
2022-08-12T18:33:04.017Z,32.27
2022-08-12T18:35:47.117Z,35.40
2022-08-12T18:38:24.534Z,36.77
2022-08-12T18:41:11.384Z,34.88
2022-08-12T18:44:00.071Z,35.58
2022-08-12T18:46:55.783Z,36.31
2022-08-12T18:49:32.013Z,37.50
2022-08-12T18:52:05.249Z,37.36
2022-08-12T18:54:49.158Z,37.68
2022-08-12T18:57:45.555Z,37.27
2022-08-12T19:00:18.880Z,37.16
2022-08-12T19:02:53.384Z,37.56
2022-08-12T19:05:20.463Z,38.31
2022-08-12T19:08:01.099Z,37.51
2022-08-12T19:10:31.045Z,38.93
2022-08-12T19:13:23.530Z,38.99
2022-08-12T19:15:53.554Z,40.02
2022-08-12T19:18:21.940Z,38.83
2022-08-12T19:20:50.573Z,39.09
2022-08-12T19:23:20.886Z,40.60
2022-08-12T19:26:00.982Z,41.39
2022-08-12T19:28:35.721Z,41.01
2022-08-12T19:31:55.334Z,41.59
2022-08-12T19:34:56.268Z,42.12
2022-08-12T19:37:22.661Z,43.97
2022-08-12T19:40:10.121Z,42.16
2022-08-12T19:42:44.927Z,43.75
2022-08-12T19:45:19.933Z,44.09
2022-08-12T19:47:49.074Z,43.04
2022-08-12T19:50:19.998Z,42.52
2022-08-12T19:52:47.497Z,43.65
2022-08-12T19:55:21.528Z,43.86
2022-08-12T19:58:01.158Z,43.26
2022-08-12T20:00:28.840Z,43.73
2022-08-12T20:03:00.611Z,44.27
2022-08-12T20:06:05.844Z,43.88
2022-08-12T20:08:29.337Z,45.20
2022-08-12T20:12:11.275Z,45.73
2022-08-12T20:14:00.206Z,45.16
2022-08-12T20:16:50.619Z,45.72
2022-08-12T20:19:14.073Z,45.48
2022-08-12T20:21:43.483Z,44.71
2022-08-12T20:24:11.974Z,45.97
2022-08-12T20:26:42.239Z,47.59
2022-08-12T20:29:12.111Z,47.03
2022-08-12T20:31:39.884Z,48.81
2022-08-12T20:34:07.080Z,47.97
2022-08-12T20:36:42.185Z,48.05
2022-08-12T20:39:17.898Z,48.83
2022-08-12T20:42:07.396Z,48.29
2022-08-12T20:44:39.641Z,48.72
2022-08-12T20:47:19.939Z,49.34
2022-08-12T20:49:55.592Z,48.92
2022-08-12T20:52:28.994Z,49.60
2022-08-12T20:54:55.867Z,49.26
2022-08-12T20:57:23.059Z,49.21
2022-08-12T20:59:52.502Z,50.31
2022-08-12T21:02:24.529Z,50.07
2022-08-12T21:06:12.064Z,49.62
2022-08-12T21:08:19.076Z,50.17
2022-08-12T21:10:51.284Z,51.43
2022-08-12T21:13:20.599Z,50.99
2022-08-12T21:15:55.007Z,51.69
2022-08-12T21:18:28.951Z,51.23
2022-08-12T21:20:59.049Z,50.71
2022-08-12T21:23:30.970Z,50.13
2022-08-12T21:26:06.063Z,51.01
2022-08-12T21:28:38.277Z,51.29
2022-08-12T21:32:37.546Z,52.74
2022-08-12T21:34:07.331Z,53.49
2022-08-12T21:36:37.850Z,53.27
2022-08-12T21:39:21.053Z,51.95
2022-08-12T21:41:53.342Z,51.07
2022-08-12T21:45:45.941Z,50.77
2022-08-12T21:47:21.348Z,50.30
2022-08-12T21:50:02.179Z,49.66
2022-08-12T21:52:34.910Z,49.59
2022-08-12T21:55:04.397Z,48.57
2022-08-12T21:57:48.213Z,48.35
2022-08-12T22:00:24.006Z,48.07
2022-08-12T22:03:20.325Z,48.25
2022-08-12T22:06:31.236Z,47.86
2022-08-12T22:09:11.283Z,47.30
2022-08-12T22:11:57.044Z,47.16
2022-08-12T22:14:28.527Z,48.09
2022-08-12T22:16:57.240Z,47.64
2022-08-12T22:19:24.337Z,48.93
2022-08-12T22:21:54.410Z,49.77
2022-08-12T22:24:26.681Z,47.79
2022-08-12T22:27:14.464Z,47.24
2022-08-12T22:30:17.086Z,47.81
2022-08-12T22:32:49.735Z,46.89
2022-08-12T22:35:56.000Z,47.37
2022-08-12T22:38:20.654Z,47.02
2022-08-12T22:40:52.940Z,46.54
2022-08-12T22:43:59.683Z,47.30
2022-08-12T22:46:43.223Z,47.65
2022-08-12T22:49:37.256Z,47.75
2022-08-12T22:52:11.836Z,47.59
2022-08-12T22:54:57.996Z,47.54
2022-08-12T22:57:49.134Z,47.66
2022-08-12T23:00:23.534Z,47.55
2022-08-12T23:02:51.336Z,47.75
2022-08-12T23:05:23.579Z,47.08
2022-08-12T23:08:13.873Z,46.72
2022-08-12T23:10:45.076Z,46.43
2022-08-12T23:13:43.514Z,46.51
2022-08-12T23:16:29.524Z,46.49
2022-08-12T23:19:18.273Z,45.82
2022-08-12T23:22:06.761Z,45.82
2022-08-12T23:24:53.925Z,46.28
2022-08-12T23:27:44.395Z,46.73
2022-08-12T23:30:24.822Z,46.22
2022-08-12T23:32:54.654Z,45.90
2022-08-12T23:38:30.924Z,45.57
2022-08-12T23:41:03.479Z,46.19
2022-08-12T23:43:39.222Z,46.27
2022-08-12T23:46:11.624Z,46.97
2022-08-12T23:48:39.994Z,47.23
2022-08-12T23:51:22.068Z,46.54
2022-08-12T23:53:50.593Z,46.42
2022-08-12T23:56:17.713Z,46.81
2022-08-12T23:58:51.468Z,46.82
